sensor_id;sensor_type;location;lat;lon;timestamp;P1;durP1;ratioP1;P2;durP2;ratioP2
38399;SDS011;24180;42.676;23.320;2023-12-04T00:01:59;545.20;;;94.50;;
38399;SDS011;24180;42.676;23.320;2023-12-04T00:04:24;540.37;;;94.90;;
38399;SDS011;24180;42.676;23.320;2023-12-04T00:06:50;555.40;;;100.70;;
38399;SDS011;24180;42.676;23.320;2023-12-04T00:09:15;548.27;;;98.10;;
38399;SDS011;24180;42.676;23.320;2023-12-04T00:11:40;538.30;;;94.60;;
38399;SDS011;24180;42.676;23.320;2023-12-04T00:14:06;550.23;;;103.33;;
38399;SDS011;24180;42.676;23.320;2023-12-04T00:16:34;548.20;;;100.57;;
38399;SDS011;24180;42.676;23.320;2023-12-04T00:19:02;545.73;;;97.37;;
38399;SDS011;24180;42.676;23.320;2023-12-04T00:21:28;552.83;;;102.33;;
38399;SDS011;24180;42.676;23.320;2023-12-04T00:23:53;540.93;;;95.87;;
38399;SDS011;24180;42.676;23.320;2023-12-04T00:26:19;546.70;;;98.40;;
38399;SDS011;24180;42.676;23.320;2023-12-04T00:28:44;541.13;;;96.10;;
38399;SDS011;24180;42.676;23.320;2023-12-04T00:31:10;543.77;;;101.07;;
38399;SDS011;24180;42.676;23.320;2023-12-04T00:33:36;539.27;;;97.20;;
38399;SDS011;24180;42.676;23.320;2023-12-04T00:36:01;539.83;;;95.87;;
38399;SDS011;24180;42.676;23.320;2023-12-04T00:38:27;541.70;;;97.97;;
38399;SDS011;24180;42.676;23.320;2023-12-04T00:40:52;542.67;;;99.70;;
38399;SDS011;24180;42.676;23.320;2023-12-04T00:43:18;535.93;;;94.60;;
38399;SDS011;24180;42.676;23.320;2023-12-04T00:45:45;545.10;;;98.37;;
38399;SDS011;24180;42.676;23.320;2023-12-04T00:48:10;538.77;;;92.73;;
38399;SDS011;24180;42.676;23.320;2023-12-04T00:50:36;540.00;;;94.93;;
38399;SDS011;24180;42.676;23.320;2023-12-04T00:53:01;541.10;;;94.20;;
38399;SDS011;24180;42.676;23.320;2023-12-04T00:55:27;546.00;;;98.37;;
38399;SDS011;24180;42.676;23.320;2023-12-04T00:57:52;546.20;;;102.07;;
38399;SDS011;24180;42.676;23.320;2023-12-04T01:00:17;539.07;;;90.97;;
38399;SDS011;24180;42.676;23.320;2023-12-04T01:02:43;540.60;;;89.87;;
38399;SDS011;24180;42.676;23.320;2023-12-04T01:05:09;532.73;;;87.17;;
38399;SDS011;24180;42.676;23.320;2023-12-04T01:07:34;535.57;;;96.57;;
38399;SDS011;24180;42.676;23.320;2023-12-04T01:10:00;538.83;;;92.73;;
38399;SDS011;24180;42.676;23.320;2023-12-04T01:12:25;544.37;;;98.77;;
38399;SDS011;24180;42.676;23.320;2023-12-04T01:14:51;532.37;;;89.70;;
38399;SDS011;24180;42.676;23.320;2023-12-04T01:17:17;535.63;;;95.17;;
38399;SDS011;24180;42.676;23.320;2023-12-04T01:19:43;538.93;;;99.00;;
38399;SDS011;24180;42.676;23.320;2023-12-04T01:22:08;540.40;;;95.13;;
38399;SDS011;24180;42.676;23.320;2023-12-04T01:24:34;534.00;;;95.77;;
38399;SDS011;24180;42.676;23.320;2023-12-04T01:27:00;541.73;;;97.47;;
38399;SDS011;24180;42.676;23.320;2023-12-04T01:29:25;537.77;;;92.63;;
38399;SDS011;24180;42.676;23.320;2023-12-04T01:31:50;530.60;;;86.23;;
38399;SDS011;24180;42.676;23.320;2023-12-04T01:34:16;539.93;;;95.80;;
38399;SDS011;24180;42.676;23.320;2023-12-04T01:36:41;535.27;;;90.57;;
38399;SDS011;24180;42.676;23.320;2023-12-04T01:39:07;540.93;;;97.43;;
38399;SDS011;24180;42.676;23.320;2023-12-04T01:41:33;546.33;;;98.30;;
38399;SDS011;24180;42.676;23.320;2023-12-04T01:43:58;540.07;;;92.83;;
38399;SDS011;24180;42.676;23.320;2023-12-04T01:46:24;537.77;;;88.10;;
38399;SDS011;24180;42.676;23.320;2023-12-04T01:48:50;544.60;;;95.13;;
38399;SDS011;24180;42.676;23.320;2023-12-04T01:51:16;538.30;;;91.97;;
38399;SDS011;24180;42.676;23.320;2023-12-04T01:53:43;540.67;;;95.03;;
38399;SDS011;24180;42.676;23.320;2023-12-04T01:56:09;538.77;;;94.57;;
38399;SDS011;24180;42.676;23.320;2023-12-04T01:58:35;529.60;;;88.57;;
38399;SDS011;24180;42.676;23.320;2023-12-04T02:01:02;534.07;;;94.57;;
38399;SDS011;24180;42.676;23.320;2023-12-04T02:03:29;531.20;;;92.30;;
38399;SDS011;24180;42.676;23.320;2023-12-04T02:05:55;537.20;;;96.30;;
38399;SDS011;24180;42.676;23.320;2023-12-04T02:08:24;539.80;;;95.87;;
38399;SDS011;24180;42.676;23.320;2023-12-04T02:10:50;538.17;;;93.77;;
38399;SDS011;24180;42.676;23.320;2023-12-04T02:13:16;536.57;;;92.53;;
38399;SDS011;24180;42.676;23.320;2023-12-04T02:15:41;535.07;;;92.37;;
38399;SDS011;24180;42.676;23.320;2023-12-04T02:18:07;533.70;;;91.13;;
38399;SDS011;24180;42.676;23.320;2023-12-04T02:20:33;532.90;;;91.70;;
38399;SDS011;24180;42.676;23.320;2023-12-04T02:23:02;534.17;;;92.77;;
38399;SDS011;24180;42.676;23.320;2023-12-04T02:25:28;534.73;;;89.77;;
38399;SDS011;24180;42.676;23.320;2023-12-04T02:27:56;534.63;;;90.50;;
38399;SDS011;24180;42.676;23.320;2023-12-04T02:30:25;534.57;;;95.30;;
38399;SDS011;24180;42.676;23.320;2023-12-04T02:32:53;535.17;;;89.43;;
38399;SDS011;24180;42.676;23.320;2023-12-04T02:35:21;537.63;;;88.43;;
38399;SDS011;24180;42.676;23.320;2023-12-04T02:37:49;536.47;;;86.53;;
38399;SDS011;24180;42.676;23.320;2023-12-04T02:40:16;536.03;;;87.37;;
38399;SDS011;24180;42.676;23.320;2023-12-04T02:42:41;534.33;;;92.53;;
38399;SDS011;24180;42.676;23.320;2023-12-04T02:45:07;541.33;;;92.63;;
38399;SDS011;24180;42.676;23.320;2023-12-04T02:47:33;535.07;;;93.43;;
38399;SDS011;24180;42.676;23.320;2023-12-04T02:49:58;536.63;;;93.30;;
38399;SDS011;24180;42.676;23.320;2023-12-04T02:52:24;538.57;;;91.37;;
38399;SDS011;24180;42.676;23.320;2023-12-04T02:54:49;526.00;;;87.80;;
38399;SDS011;24180;42.676;23.320;2023-12-04T02:57:15;529.87;;;91.00;;
38399;SDS011;24180;42.676;23.320;2023-12-04T02:59:40;532.83;;;87.03;;
38399;SDS011;24180;42.676;23.320;2023-12-04T03:02:06;531.80;;;87.57;;
38399;SDS011;24180;42.676;23.320;2023-12-04T03:04:31;524.43;;;87.30;;
38399;SDS011;24180;42.676;23.320;2023-12-04T03:06:57;538.00;;;88.27;;
38399;SDS011;24180;42.676;23.320;2023-12-04T03:09:22;534.60;;;91.47;;
38399;SDS011;24180;42.676;23.320;2023-12-04T03:11:48;538.67;;;88.83;;
38399;SDS011;24180;42.676;23.320;2023-12-04T03:14:13;533.93;;;90.30;;
38399;SDS011;24180;42.676;23.320;2023-12-04T03:16:39;533.70;;;86.20;;
38399;SDS011;24180;42.676;23.320;2023-12-04T03:19:05;532.57;;;87.33;;
38399;SDS011;24180;42.676;23.320;2023-12-04T03:21:30;525.90;;;83.93;;
38399;SDS011;24180;42.676;23.320;2023-12-04T03:23:56;529.43;;;84.93;;
38399;SDS011;24180;42.676;23.320;2023-12-04T03:26:21;529.00;;;85.73;;
38399;SDS011;24180;42.676;23.320;2023-12-04T03:28:47;528.87;;;82.97;;
38399;SDS011;24180;42.676;23.320;2023-12-04T03:31:12;531.87;;;89.00;;
38399;SDS011;24180;42.676;23.320;2023-12-04T03:33:38;527.10;;;87.60;;
38399;SDS011;24180;42.676;23.320;2023-12-04T03:36:03;528.13;;;84.13;;
38399;SDS011;24180;42.676;23.320;2023-12-04T03:38:29;534.07;;;94.47;;
38399;SDS011;24180;42.676;23.320;2023-12-04T03:40:54;530.57;;;90.67;;
38399;SDS011;24180;42.676;23.320;2023-12-04T03:43:20;534.03;;;88.60;;
38399;SDS011;24180;42.676;23.320;2023-12-04T03:45:46;532.00;;;86.97;;
38399;SDS011;24180;42.676;23.320;2023-12-04T03:48:11;533.47;;;90.07;;
38399;SDS011;24180;42.676;23.320;2023-12-04T03:50:37;535.57;;;92.47;;
38399;SDS011;24180;42.676;23.320;2023-12-04T03:53:02;525.53;;;87.37;;
38399;SDS011;24180;42.676;23.320;2023-12-04T03:55:28;529.60;;;87.17;;
38399;SDS011;24180;42.676;23.320;2023-12-04T03:57:54;528.07;;;86.70;;
38399;SDS011;24180;42.676;23.320;2023-12-04T04:00:20;524.13;;;84.27;;
38399;SDS011;24180;42.676;23.320;2023-12-04T04:02:45;525.23;;;84.90;;
38399;SDS011;24180;42.676;23.320;2023-12-04T04:05:11;529.47;;;89.93;;
38399;SDS011;24180;42.676;23.320;2023-12-04T04:07:36;525.80;;;85.93;;
38399;SDS011;24180;42.676;23.320;2023-12-04T04:10:02;533.37;;;89.17;;
38399;SDS011;24180;42.676;23.320;2023-12-04T04:12:29;524.07;;;83.27;;
38399;SDS011;24180;42.676;23.320;2023-12-04T04:14:55;535.03;;;87.10;;
38399;SDS011;24180;42.676;23.320;2023-12-04T04:17:21;531.43;;;85.77;;
38399;SDS011;24180;42.676;23.320;2023-12-04T04:19:46;530.77;;;85.30;;
38399;SDS011;24180;42.676;23.320;2023-12-04T04:22:12;523.80;;;83.50;;
38399;SDS011;24180;42.676;23.320;2023-12-04T04:24:37;530.20;;;87.70;;
38399;SDS011;24180;42.676;23.320;2023-12-04T04:27:03;523.70;;;82.30;;
38399;SDS011;24180;42.676;23.320;2023-12-04T04:29:28;523.10;;;81.33;;
38399;SDS011;24180;42.676;23.320;2023-12-04T04:31:54;533.33;;;83.63;;
38399;SDS011;24180;42.676;23.320;2023-12-04T04:34:19;536.20;;;89.40;;
38399;SDS011;24180;42.676;23.320;2023-12-04T04:36:46;532.60;;;83.93;;
38399;SDS011;24180;42.676;23.320;2023-12-04T04:39:12;534.37;;;89.77;;
38399;SDS011;24180;42.676;23.320;2023-12-04T04:41:38;527.47;;;86.40;;
38399;SDS011;24180;42.676;23.320;2023-12-04T04:44:04;537.73;;;87.60;;
38399;SDS011;24180;42.676;23.320;2023-12-04T04:46:30;528.50;;;84.73;;
38399;SDS011;24180;42.676;23.320;2023-12-04T04:48:56;531.17;;;84.60;;
38399;SDS011;24180;42.676;23.320;2023-12-04T04:51:22;539.70;;;90.27;;
38399;SDS011;24180;42.676;23.320;2023-12-04T04:53:47;532.63;;;87.20;;
38399;SDS011;24180;42.676;23.320;2023-12-04T04:56:13;534.27;;;88.60;;
38399;SDS011;24180;42.676;23.320;2023-12-04T04:58:40;533.90;;;89.53;;
38399;SDS011;24180;42.676;23.320;2023-12-04T05:01:05;529.23;;;83.93;;
38399;SDS011;24180;42.676;23.320;2023-12-04T05:03:31;533.50;;;88.67;;
38399;SDS011;24180;42.676;23.320;2023-12-04T05:05:57;538.93;;;89.63;;
38399;SDS011;24180;42.676;23.320;2023-12-04T05:08:22;539.17;;;89.47;;
38399;SDS011;24180;42.676;23.320;2023-12-04T05:10:48;533.97;;;89.37;;
38399;SDS011;24180;42.676;23.320;2023-12-04T05:13:13;535.33;;;85.93;;
38399;SDS011;24180;42.676;23.320;2023-12-04T05:15:39;531.43;;;87.57;;
38399;SDS011;24180;42.676;23.320;2023-12-04T05:18:04;537.33;;;92.83;;
38399;SDS011;24180;42.676;23.320;2023-12-04T05:20:30;533.43;;;84.67;;
38399;SDS011;24180;42.676;23.320;2023-12-04T05:22:56;533.63;;;87.57;;
38399;SDS011;24180;42.676;23.320;2023-12-04T05:25:22;529.87;;;80.47;;
38399;SDS011;24180;42.676;23.320;2023-12-04T05:27:47;537.30;;;89.33;;
38399;SDS011;24180;42.676;23.320;2023-12-04T05:30:13;529.53;;;82.60;;
38399;SDS011;24180;42.676;23.320;2023-12-04T05:32:38;536.07;;;86.57;;
38399;SDS011;24180;42.676;23.320;2023-12-04T05:35:04;524.13;;;81.97;;
38399;SDS011;24180;42.676;23.320;2023-12-04T05:37:30;531.07;;;86.97;;
38399;SDS011;24180;42.676;23.320;2023-12-04T05:39:56;518.33;;;91.43;;
38399;SDS011;24180;42.676;23.320;2023-12-04T05:42:21;520.10;;;90.60;;
38399;SDS011;24180;42.676;23.320;2023-12-04T05:44:46;527.17;;;85.50;;
38399;SDS011;24180;42.676;23.320;2023-12-04T05:47:12;525.27;;;79.97;;
38399;SDS011;24180;42.676;23.320;2023-12-04T05:49:37;524.97;;;85.33;;
38399;SDS011;24180;42.676;23.320;2023-12-04T05:52:03;522.73;;;79.73;;
38399;SDS011;24180;42.676;23.320;2023-12-04T05:54:29;531.07;;;85.27;;
38399;SDS011;24180;42.676;23.320;2023-12-04T05:56:55;537.03;;;90.57;;
38399;SDS011;24180;42.676;23.320;2023-12-04T05:59:20;524.63;;;84.70;;
38399;SDS011;24180;42.676;23.320;2023-12-04T06:01:46;533.63;;;89.40;;
38399;SDS011;24180;42.676;23.320;2023-12-04T06:04:11;527.90;;;84.80;;
38399;SDS011;24180;42.676;23.320;2023-12-04T06:06:37;529.37;;;85.77;;
38399;SDS011;24180;42.676;23.320;2023-12-04T06:09:02;525.27;;;83.30;;
38399;SDS011;24180;42.676;23.320;2023-12-04T06:11:28;532.40;;;86.50;;
38399;SDS011;24180;42.676;23.320;2023-12-04T06:13:53;528.63;;;88.53;;
38399;SDS011;24180;42.676;23.320;2023-12-04T06:16:19;527.73;;;84.07;;
38399;SDS011;24180;42.676;23.320;2023-12-04T06:18:44;528.67;;;83.93;;
38399;SDS011;24180;42.676;23.320;2023-12-04T06:21:10;531.57;;;88.13;;
38399;SDS011;24180;42.676;23.320;2023-12-04T06:23:35;538.10;;;89.57;;
38399;SDS011;24180;42.676;23.320;2023-12-04T06:26:01;532.80;;;85.57;;
38399;SDS011;24180;42.676;23.320;2023-12-04T06:28:26;535.03;;;89.47;;
38399;SDS011;24180;42.676;23.320;2023-12-04T06:30:52;532.00;;;87.33;;
38399;SDS011;24180;42.676;23.320;2023-12-04T06:33:18;536.40;;;91.60;;
38399;SDS011;24180;42.676;23.320;2023-12-04T06:35:45;529.97;;;86.63;;
38399;SDS011;24180;42.676;23.320;2023-12-04T06:38:11;534.43;;;86.07;;
38399;SDS011;24180;42.676;23.320;2023-12-04T06:40:39;525.20;;;92.37;;
38399;SDS011;24180;42.676;23.320;2023-12-04T06:43:05;528.77;;;91.77;;
38399;SDS011;24180;42.676;23.320;2023-12-04T06:45:32;534.60;;;88.53;;
38399;SDS011;24180;42.676;23.320;2023-12-04T06:47:58;536.17;;;87.33;;
38399;SDS011;24180;42.676;23.320;2023-12-04T06:50:24;531.23;;;89.33;;
38399;SDS011;24180;42.676;23.320;2023-12-04T06:52:49;534.83;;;87.93;;
38399;SDS011;24180;42.676;23.320;2023-12-04T06:55:15;535.90;;;91.53;;
38399;SDS011;24180;42.676;23.320;2023-12-04T06:57:40;534.30;;;88.57;;
38399;SDS011;24180;42.676;23.320;2023-12-04T07:00:06;539.30;;;92.13;;
38399;SDS011;24180;42.676;23.320;2023-12-04T07:02:33;537.63;;;91.97;;
38399;SDS011;24180;42.676;23.320;2023-12-04T07:04:58;533.13;;;88.23;;
38399;SDS011;24180;42.676;23.320;2023-12-04T07:07:24;533.33;;;89.67;;
38399;SDS011;24180;42.676;23.320;2023-12-04T07:09:50;535.30;;;88.50;;
38399;SDS011;24180;42.676;23.320;2023-12-04T07:12:15;537.93;;;91.27;;
38399;SDS011;24180;42.676;23.320;2023-12-04T07:14:41;544.03;;;88.80;;
38399;SDS011;24180;42.676;23.320;2023-12-04T07:17:07;532.73;;;90.40;;
38399;SDS011;24180;42.676;23.320;2023-12-04T07:19:32;540.23;;;92.47;;
38399;SDS011;24180;42.676;23.320;2023-12-04T07:21:58;537.43;;;89.77;;
38399;SDS011;24180;42.676;23.320;2023-12-04T07:24:23;539.43;;;91.83;;
38399;SDS011;24180;42.676;23.320;2023-12-04T07:26:49;546.47;;;97.67;;
38399;SDS011;24180;42.676;23.320;2023-12-04T07:29:15;535.00;;;92.03;;
38399;SDS011;24180;42.676;23.320;2023-12-04T07:31:41;540.23;;;95.07;;
38399;SDS011;24180;42.676;23.320;2023-12-04T07:34:06;537.30;;;92.37;;
38399;SDS011;24180;42.676;23.320;2023-12-04T07:36:32;538.47;;;88.57;;
38399;SDS011;24180;42.676;23.320;2023-12-04T07:38:57;541.70;;;92.43;;
38399;SDS011;24180;42.676;23.320;2023-12-04T07:41:23;533.03;;;93.53;;
38399;SDS011;24180;42.676;23.320;2023-12-04T07:43:49;535.37;;;91.20;;
38399;SDS011;24180;42.676;23.320;2023-12-04T07:46:14;535.40;;;89.87;;
38399;SDS011;24180;42.676;23.320;2023-12-04T07:48:40;539.67;;;96.23;;
38399;SDS011;24180;42.676;23.320;2023-12-04T07:51:06;537.37;;;92.83;;
38399;SDS011;24180;42.676;23.320;2023-12-04T07:53:32;538.40;;;95.63;;
38399;SDS011;24180;42.676;23.320;2023-12-04T07:56:00;544.00;;;97.90;;
38399;SDS011;24180;42.676;23.320;2023-12-04T07:58:28;541.70;;;96.80;;
38399;SDS011;24180;42.676;23.320;2023-12-04T08:00:53;540.20;;;95.23;;
38399;SDS011;24180;42.676;23.320;2023-12-04T08:03:19;541.43;;;93.67;;
38399;SDS011;24180;42.676;23.320;2023-12-04T08:05:44;533.10;;;94.03;;
38399;SDS011;24180;42.676;23.320;2023-12-04T08:08:10;538.40;;;94.53;;
38399;SDS011;24180;42.676;23.320;2023-12-04T08:10:35;534.83;;;90.37;;
38399;SDS011;24180;42.676;23.320;2023-12-04T08:13:01;540.27;;;92.77;;
38399;SDS011;24180;42.676;23.320;2023-12-04T08:15:26;524.60;;;87.10;;
38399;SDS011;24180;42.676;23.320;2023-12-04T08:17:52;530.77;;;91.17;;
38399;SDS011;24180;42.676;23.320;2023-12-04T08:20:17;535.40;;;91.23;;
38399;SDS011;24180;42.676;23.320;2023-12-04T08:22:47;537.60;;;94.60;;
38399;SDS011;24180;42.676;23.320;2023-12-04T08:25:12;538.57;;;97.30;;
38399;SDS011;24180;42.676;23.320;2023-12-04T08:27:38;540.53;;;97.30;;
38399;SDS011;24180;42.676;23.320;2023-12-04T08:30:04;546.17;;;100.73;;
38399;SDS011;24180;42.676;23.320;2023-12-04T08:32:30;544.63;;;100.03;;
38399;SDS011;24180;42.676;23.320;2023-12-04T08:34:55;539.53;;;93.33;;
38399;SDS011;24180;42.676;23.320;2023-12-04T08:37:21;543.27;;;95.77;;
38399;SDS011;24180;42.676;23.320;2023-12-04T08:39:46;544.83;;;99.10;;
38399;SDS011;24180;42.676;23.320;2023-12-04T08:42:12;549.57;;;98.80;;
38399;SDS011;24180;42.676;23.320;2023-12-04T08:44:37;552.80;;;104.27;;
38399;SDS011;24180;42.676;23.320;2023-12-04T08:47:04;545.93;;;98.03;;
38399;SDS011;24180;42.676;23.320;2023-12-04T08:49:29;542.73;;;96.33;;
38399;SDS011;24180;42.676;23.320;2023-12-04T08:51:55;563.97;;;106.60;;
38399;SDS011;24180;42.676;23.320;2023-12-04T08:54:20;545.97;;;95.47;;
38399;SDS011;24180;42.676;23.320;2023-12-04T08:56:46;547.27;;;102.80;;
38399;SDS011;24180;42.676;23.320;2023-12-04T08:59:12;544.27;;;98.87;;
38399;SDS011;24180;42.676;23.320;2023-12-04T09:01:38;548.00;;;100.50;;
38399;SDS011;24180;42.676;23.320;2023-12-04T09:04:04;553.13;;;102.23;;
38399;SDS011;24180;42.676;23.320;2023-12-04T09:06:29;554.07;;;111.50;;
38399;SDS011;24180;42.676;23.320;2023-12-04T09:08:55;550.93;;;108.67;;
38399;SDS011;24180;42.676;23.320;2023-12-04T09:11:20;553.77;;;116.43;;
38399;SDS011;24180;42.676;23.320;2023-12-04T09:13:46;562.80;;;118.77;;
38399;SDS011;24180;42.676;23.320;2023-12-04T09:16:11;571.03;;;133.17;;
38399;SDS011;24180;42.676;23.320;2023-12-04T09:18:37;565.93;;;136.87;;
38399;SDS011;24180;42.676;23.320;2023-12-04T09:21:02;567.90;;;136.63;;
38399;SDS011;24180;42.676;23.320;2023-12-04T09:23:29;564.87;;;137.17;;
38399;SDS011;24180;42.676;23.320;2023-12-04T09:25:55;567.70;;;138.40;;
38399;SDS011;24180;42.676;23.320;2023-12-04T09:28:21;561.03;;;133.07;;
38399;SDS011;24180;42.676;23.320;2023-12-04T09:30:46;565.87;;;134.83;;
38399;SDS011;24180;42.676;23.320;2023-12-04T09:33:12;567.37;;;135.17;;
38399;SDS011;24180;42.676;23.320;2023-12-04T09:35:37;570.00;;;144.63;;
38399;SDS011;24180;42.676;23.320;2023-12-04T09:38:03;575.57;;;150.50;;
38399;SDS011;24180;42.676;23.320;2023-12-04T09:40:28;575.17;;;150.03;;
38399;SDS011;24180;42.676;23.320;2023-12-04T09:42:54;585.23;;;170.67;;
38399;SDS011;24180;42.676;23.320;2023-12-04T09:45:20;592.03;;;184.93;;
38399;SDS011;24180;42.676;23.320;2023-12-04T09:47:48;591.30;;;206.47;;
38399;SDS011;24180;42.676;23.320;2023-12-04T09:50:14;591.20;;;204.00;;
38399;SDS011;24180;42.676;23.320;2023-12-04T09:52:46;606.10;;;237.93;;
38399;SDS011;24180;42.676;23.320;2023-12-04T09:55:15;608.67;;;257.90;;
38399;SDS011;24180;42.676;23.320;2023-12-04T09:57:42;616.63;;;269.17;;
38399;SDS011;24180;42.676;23.320;2023-12-04T10:00:10;622.83;;;285.90;;
38399;SDS011;24180;42.676;23.320;2023-12-04T10:02:38;615.23;;;286.77;;
38399;SDS011;24180;42.676;23.320;2023-12-04T10:05:04;630.60;;;315.63;;
38399;SDS011;24180;42.676;23.320;2023-12-04T10:07:30;631.37;;;326.00;;
38399;SDS011;24180;42.676;23.320;2023-12-04T10:09:56;635.70;;;349.30;;
38399;SDS011;24180;42.676;23.320;2023-12-04T10:12:22;645.70;;;369.97;;
38399;SDS011;24180;42.676;23.320;2023-12-04T10:15:06;645.73;;;371.97;;
38399;SDS011;24180;42.676;23.320;2023-12-04T10:17:34;630.20;;;325.17;;
38399;SDS011;24180;42.676;23.320;2023-12-04T10:20:08;634.93;;;335.50;;
38399;SDS011;24180;42.676;23.320;2023-12-04T10:22:53;647.27;;;354.43;;
38399;SDS011;24180;42.676;23.320;2023-12-04T10:25:20;627.53;;;327.57;;
38399;SDS011;24180;42.676;23.320;2023-12-04T10:27:46;633.43;;;334.97;;
38399;SDS011;24180;42.676;23.320;2023-12-04T10:33:08;664.60;;;418.73;;
38399;SDS011;24180;42.676;23.320;2023-12-04T10:35:35;671.60;;;462.57;;
38399;SDS011;24180;42.676;23.320;2023-12-04T10:38:01;690.27;;;514.73;;
38399;SDS011;24180;42.676;23.320;2023-12-04T10:40:31;694.93;;;553.87;;
38399;SDS011;24180;42.676;23.320;2023-12-04T10:43:17;707.90;;;607.00;;
38399;SDS011;24180;42.676;23.320;2023-12-04T10:45:47;707.20;;;570.07;;
38399;SDS011;24180;42.676;23.320;2023-12-04T10:48:14;692.97;;;548.17;;
38399;SDS011;24180;42.676;23.320;2023-12-04T10:50:45;689.10;;;555.70;;
38399;SDS011;24180;42.676;23.320;2023-12-04T10:53:15;693.37;;;552.83;;
38399;SDS011;24180;42.676;23.320;2023-12-04T10:55:41;679.70;;;495.43;;
38399;SDS011;24180;42.676;23.320;2023-12-04T10:58:17;674.73;;;464.03;;
38399;SDS011;24180;42.676;23.320;2023-12-04T11:00:48;659.63;;;417.77;;
38399;SDS011;24180;42.676;23.320;2023-12-04T11:03:20;655.13;;;369.47;;
38399;SDS011;24180;42.676;23.320;2023-12-04T11:05:59;639.10;;;327.70;;
38399;SDS011;24180;42.676;23.320;2023-12-04T11:08:27;622.03;;;269.53;;
38399;SDS011;24180;42.676;23.320;2023-12-04T11:10:56;603.77;;;231.30;;
38399;SDS011;24180;42.676;23.320;2023-12-04T11:13:27;597.40;;;211.33;;
38399;SDS011;24180;42.676;23.320;2023-12-04T11:15:56;592.03;;;191.80;;
38399;SDS011;24180;42.676;23.320;2023-12-04T11:18:26;585.93;;;180.60;;
38399;SDS011;24180;42.676;23.320;2023-12-04T11:21:01;585.87;;;176.23;;
38399;SDS011;24180;42.676;23.320;2023-12-04T11:23:32;576.63;;;160.13;;
38399;SDS011;24180;42.676;23.320;2023-12-04T11:25:58;592.67;;;168.73;;
38399;SDS011;24180;42.676;23.320;2023-12-04T11:28:25;579.97;;;156.57;;
38399;SDS011;24180;42.676;23.320;2023-12-04T11:30:52;571.70;;;147.73;;
38399;SDS011;24180;42.676;23.320;2023-12-04T11:33:19;578.47;;;154.43;;
38399;SDS011;24180;42.676;23.320;2023-12-04T11:35:45;581.17;;;153.53;;
38399;SDS011;24180;42.676;23.320;2023-12-04T11:38:14;569.13;;;148.77;;
38399;SDS011;24180;42.676;23.320;2023-12-04T11:40:40;572.33;;;151.50;;
38399;SDS011;24180;42.676;23.320;2023-12-04T11:43:26;576.30;;;141.77;;
38399;SDS011;24180;42.676;23.320;2023-12-04T11:45:53;575.30;;;147.70;;
38399;SDS011;24180;42.676;23.320;2023-12-04T11:48:27;575.47;;;141.60;;
38399;SDS011;24180;42.676;23.320;2023-12-04T11:50:55;583.07;;;149.40;;
38399;SDS011;24180;42.676;23.320;2023-12-04T11:53:22;568.27;;;144.37;;
38399;SDS011;24180;42.676;23.320;2023-12-04T11:55:48;570.63;;;146.33;;
38399;SDS011;24180;42.676;23.320;2023-12-04T11:58:13;583.07;;;148.30;;
38399;SDS011;24180;42.676;23.320;2023-12-04T12:00:41;582.37;;;156.77;;
38399;SDS011;24180;42.676;23.320;2023-12-04T12:03:08;585.63;;;152.83;;
38399;SDS011;24180;42.676;23.320;2023-12-04T12:05:35;571.93;;;150.37;;
38399;SDS011;24180;42.676;23.320;2023-12-04T12:08:04;577.07;;;152.47;;
38399;SDS011;24180;42.676;23.320;2023-12-04T12:10:31;581.13;;;156.33;;
38399;SDS011;24180;42.676;23.320;2023-12-04T12:12:58;570.73;;;150.40;;
38399;SDS011;24180;42.676;23.320;2023-12-04T12:15:23;578.20;;;157.50;;
38399;SDS011;24180;42.676;23.320;2023-12-04T12:17:49;579.90;;;157.87;;
38399;SDS011;24180;42.676;23.320;2023-12-04T12:20:18;587.00;;;168.53;;
38399;SDS011;24180;42.676;23.320;2023-12-04T12:22:45;580.23;;;156.13;;
38399;SDS011;24180;42.676;23.320;2023-12-04T12:25:13;580.50;;;159.03;;
38399;SDS011;24180;42.676;23.320;2023-12-04T12:27:38;575.73;;;159.10;;
38399;SDS011;24180;42.676;23.320;2023-12-04T12:30:04;572.87;;;155.67;;
38399;SDS011;24180;42.676;23.320;2023-12-04T12:32:31;574.73;;;157.30;;
38399;SDS011;24180;42.676;23.320;2023-12-04T12:34:57;582.67;;;164.90;;
38399;SDS011;24180;42.676;23.320;2023-12-04T12:37:23;577.40;;;163.17;;
38399;SDS011;24180;42.676;23.320;2023-12-04T12:39:48;586.67;;;166.40;;
38399;SDS011;24180;42.676;23.320;2023-12-04T12:42:22;579.03;;;155.50;;
38399;SDS011;24180;42.676;23.320;2023-12-04T12:44:48;575.20;;;154.90;;
38399;SDS011;24180;42.676;23.320;2023-12-04T12:47:14;577.77;;;157.20;;
38399;SDS011;24180;42.676;23.320;2023-12-04T12:49:40;581.37;;;162.57;;
38399;SDS011;24180;42.676;23.320;2023-12-04T12:52:06;593.77;;;170.77;;
38399;SDS011;24180;42.676;23.320;2023-12-04T12:54:37;591.00;;;166.70;;
38399;SDS011;24180;42.676;23.320;2023-12-04T12:57:04;575.73;;;159.47;;
38399;SDS011;24180;42.676;23.320;2023-12-04T12:59:30;583.80;;;170.30;;
38399;SDS011;24180;42.676;23.320;2023-12-04T13:01:56;576.87;;;157.47;;
38399;SDS011;24180;42.676;23.320;2023-12-04T13:04:25;581.03;;;161.77;;
38399;SDS011;24180;42.676;23.320;2023-12-04T13:06:50;587.43;;;167.97;;
38399;SDS011;24180;42.676;23.320;2023-12-04T13:09:16;576.00;;;152.70;;
38399;SDS011;24180;42.676;23.320;2023-12-04T13:11:46;579.60;;;162.07;;
38399;SDS011;24180;42.676;23.320;2023-12-04T13:14:13;575.43;;;152.77;;
38399;SDS011;24180;42.676;23.320;2023-12-04T13:16:38;578.57;;;158.20;;
38399;SDS011;24180;42.676;23.320;2023-12-04T13:19:05;580.97;;;160.10;;
38399;SDS011;24180;42.676;23.320;2023-12-04T13:21:31;582.67;;;159.57;;
38399;SDS011;24180;42.676;23.320;2023-12-04T13:23:56;583.87;;;163.53;;
38399;SDS011;24180;42.676;23.320;2023-12-04T13:26:22;582.13;;;166.07;;
38399;SDS011;24180;42.676;23.320;2023-12-04T13:28:47;578.13;;;161.77;;
38399;SDS011;24180;42.676;23.320;2023-12-04T13:31:13;588.67;;;170.60;;
38399;SDS011;24180;42.676;23.320;2023-12-04T13:33:38;597.03;;;170.80;;
38399;SDS011;24180;42.676;23.320;2023-12-04T13:36:04;578.70;;;154.73;;
38399;SDS011;24180;42.676;23.320;2023-12-04T13:38:30;588.70;;;156.60;;
38399;SDS011;24180;42.676;23.320;2023-12-04T13:40:56;590.87;;;168.57;;
38399;SDS011;24180;42.676;23.320;2023-12-04T13:43:27;584.60;;;161.47;;
38399;SDS011;24180;42.676;23.320;2023-12-04T13:46:12;576.67;;;154.60;;
38399;SDS011;24180;42.676;23.320;2023-12-04T13:48:38;581.80;;;161.47;;
38399;SDS011;24180;42.676;23.320;2023-12-04T13:51:09;581.57;;;159.73;;